sensor_id;sensor_type;location;lat;lon;timestamp;P1;durP1;ratioP1;P2;durP2;ratioP2
20022;SDS011;10172;42.054;24.546;2023-03-03T00:00:26;32.38;;;16.63;;
20022;SDS011;10172;42.054;24.546;2023-03-03T00:02:52;27.63;;;15.65;;
20022;SDS011;10172;42.054;24.546;2023-03-03T00:05:17;31.75;;;15.95;;
20022;SDS011;10172;42.054;24.546;2023-03-03T00:07:43;29.65;;;16.42;;
20022;SDS011;10172;42.054;24.546;2023-03-03T00:10:10;36.38;;;18.15;;
20022;SDS011;10172;42.054;24.546;2023-03-03T00:12:43;32.42;;;17.83;;
20022;SDS011;10172;42.054;24.546;2023-03-03T00:15:18;37.38;;;16.63;;
20022;SDS011;10172;42.054;24.546;2023-03-03T00:17:46;28.75;;;15.85;;
20022;SDS011;10172;42.054;24.546;2023-03-03T00:22:50;28.40;;;15.25;;
20022;SDS011;10172;42.054;24.546;2023-03-03T00:28:09;33.83;;;18.38;;
20022;SDS011;10172;42.054;24.546;2023-03-03T00:30:44;33.50;;;17.98;;
20022;SDS011;10172;42.054;24.546;2023-03-03T00:33:21;34.92;;;17.75;;
20022;SDS011;10172;42.054;24.546;2023-03-03T00:35:58;29.23;;;16.98;;
20022;SDS011;10172;42.054;24.546;2023-03-03T00:38:46;32.55;;;17.13;;
20022;SDS011;10172;42.054;24.546;2023-03-03T00:41:16;34.00;;;16.77;;
20022;SDS011;10172;42.054;24.546;2023-03-03T00:43:45;30.10;;;16.00;;
20022;SDS011;10172;42.054;24.546;2023-03-03T00:46:10;36.00;;;17.00;;
20022;SDS011;10172;42.054;24.546;2023-03-03T00:48:42;38.50;;;18.23;;
20022;SDS011;10172;42.054;24.546;2023-03-03T00:51:12;35.67;;;17.85;;
20022;SDS011;10172;42.054;24.546;2023-03-03T00:53:55;44.30;;;19.88;;
20022;SDS011;10172;42.054;24.546;2023-03-03T00:56:22;35.58;;;18.60;;
20022;SDS011;10172;42.054;24.546;2023-03-03T00:58:48;32.47;;;18.27;;
20022;SDS011;10172;42.054;24.546;2023-03-03T01:01:15;36.95;;;17.75;;
20022;SDS011;10172;42.054;24.546;2023-03-03T01:03:41;30.95;;;17.15;;
20022;SDS011;10172;42.054;24.546;2023-03-03T01:06:07;27.30;;;16.15;;
20022;SDS011;10172;42.054;24.546;2023-03-03T01:08:33;33.42;;;17.08;;
20022;SDS011;10172;42.054;24.546;2023-03-03T01:10:59;33.03;;;17.83;;
20022;SDS011;10172;42.054;24.546;2023-03-03T01:13:32;31.15;;;17.25;;
20022;SDS011;10172;42.054;24.546;2023-03-03T01:16:00;32.35;;;16.92;;
20022;SDS011;10172;42.054;24.546;2023-03-03T01:18:27;34.17;;;18.08;;
20022;SDS011;10172;42.054;24.546;2023-03-03T01:20:53;32.38;;;16.60;;
20022;SDS011;10172;42.054;24.546;2023-03-03T01:23:18;41.03;;;18.35;;
20022;SDS011;10172;42.054;24.546;2023-03-03T01:25:44;39.75;;;17.85;;
20022;SDS011;10172;42.054;24.546;2023-03-03T01:28:09;30.90;;;14.82;;
20022;SDS011;10172;42.054;24.546;2023-03-03T01:30:35;33.78;;;15.80;;
20022;SDS011;10172;42.054;24.546;2023-03-03T01:33:01;35.70;;;17.05;;
20022;SDS011;10172;42.054;24.546;2023-03-03T01:35:26;36.53;;;18.75;;
20022;SDS011;10172;42.054;24.546;2023-03-03T01:37:53;32.95;;;17.58;;
20022;SDS011;10172;42.054;24.546;2023-03-03T01:40:20;29.50;;;14.27;;
20022;SDS011;10172;42.054;24.546;2023-03-03T01:42:50;30.60;;;15.18;;
20022;SDS011;10172;42.054;24.546;2023-03-03T01:45:22;38.97;;;18.30;;
20022;SDS011;10172;42.054;24.546;2023-03-03T01:50:50;45.03;;;20.85;;
20022;SDS011;10172;42.054;24.546;2023-03-03T01:53:19;34.15;;;18.00;;
20022;SDS011;10172;42.054;24.546;2023-03-03T01:55:48;44.70;;;21.77;;
20022;SDS011;10172;42.054;24.546;2023-03-03T02:00:59;41.33;;;20.70;;
20022;SDS011;10172;42.054;24.546;2023-03-03T02:03:29;60.83;;;24.30;;
20022;SDS011;10172;42.054;24.546;2023-03-03T02:05:56;48.50;;;20.42;;
20022;SDS011;10172;42.054;24.546;2023-03-03T02:08:28;58.67;;;23.27;;
20022;SDS011;10172;42.054;24.546;2023-03-03T02:11:00;47.80;;;22.55;;
20022;SDS011;10172;42.054;24.546;2023-03-03T02:13:28;65.90;;;25.42;;
20022;SDS011;10172;42.054;24.546;2023-03-03T02:15:54;29.88;;;15.40;;
20022;SDS011;10172;42.054;24.546;2023-03-03T02:18:20;40.80;;;21.05;;
20022;SDS011;10172;42.054;24.546;2023-03-03T02:23:38;41.13;;;19.30;;
20022;SDS011;10172;42.054;24.546;2023-03-03T02:26:06;43.33;;;19.45;;
20022;SDS011;10172;42.054;24.546;2023-03-03T02:28:38;37.47;;;17.20;;
20022;SDS011;10172;42.054;24.546;2023-03-03T02:31:05;35.33;;;17.23;;
20022;SDS011;10172;42.054;24.546;2023-03-03T02:33:36;42.33;;;19.92;;
20022;SDS011;10172;42.054;24.546;2023-03-03T02:36:02;38.35;;;17.52;;
20022;SDS011;10172;42.054;24.546;2023-03-03T02:38:29;29.85;;;16.08;;
20022;SDS011;10172;42.054;24.546;2023-03-03T02:43:42;30.70;;;16.65;;
20022;SDS011;10172;42.054;24.546;2023-03-03T02:46:17;33.67;;;15.80;;
20022;SDS011;10172;42.054;24.546;2023-03-03T02:48:43;37.03;;;17.27;;
20022;SDS011;10172;42.054;24.546;2023-03-03T02:51:08;41.25;;;17.30;;
20022;SDS011;10172;42.054;24.546;2023-03-03T02:53:34;44.63;;;16.95;;
20022;SDS011;10172;42.054;24.546;2023-03-03T02:55:59;29.70;;;16.05;;
20022;SDS011;10172;42.054;24.546;2023-03-03T02:58:25;40.03;;;17.27;;
20022;SDS011;10172;42.054;24.546;2023-03-03T03:00:51;36.97;;;16.85;;
20022;SDS011;10172;42.054;24.546;2023-03-03T03:03:16;38.28;;;16.80;;
20022;SDS011;10172;42.054;24.546;2023-03-03T03:05:42;30.75;;;15.38;;
20022;SDS011;10172;42.054;24.546;2023-03-03T03:08:07;28.13;;;15.45;;
20022;SDS011;10172;42.054;24.546;2023-03-03T03:10:33;37.78;;;16.90;;
20022;SDS011;10172;42.054;24.546;2023-03-03T03:12:59;30.02;;;15.98;;
20022;SDS011;10172;42.054;24.546;2023-03-03T03:15:24;31.10;;;15.77;;
20022;SDS011;10172;42.054;24.546;2023-03-03T03:17:50;31.48;;;15.82;;
20022;SDS011;10172;42.054;24.546;2023-03-03T03:20:15;29.73;;;15.43;;
20022;SDS011;10172;42.054;24.546;2023-03-03T03:22:42;30.27;;;16.38;;
20022;SDS011;10172;42.054;24.546;2023-03-03T03:25:07;27.65;;;15.95;;
20022;SDS011;10172;42.054;24.546;2023-03-03T03:27:33;32.92;;;15.05;;
20022;SDS011;10172;42.054;24.546;2023-03-03T03:29:58;31.92;;;15.10;;
20022;SDS011;10172;42.054;24.546;2023-03-03T03:32:24;34.70;;;16.02;;
20022;SDS011;10172;42.054;24.546;2023-03-03T03:34:49;29.25;;;15.25;;
20022;SDS011;10172;42.054;24.546;2023-03-03T03:37:15;31.80;;;16.00;;
20022;SDS011;10172;42.054;24.546;2023-03-03T03:39:40;31.80;;;16.10;;
20022;SDS011;10172;42.054;24.546;2023-03-03T03:42:06;33.55;;;15.95;;
20022;SDS011;10172;42.054;24.546;2023-03-03T03:44:32;28.15;;;14.93;;
20022;SDS011;10172;42.054;24.546;2023-03-03T03:46:57;28.15;;;15.77;;
20022;SDS011;10172;42.054;24.546;2023-03-03T03:49:22;30.95;;;15.90;;
20022;SDS011;10172;42.054;24.546;2023-03-03T03:51:48;37.03;;;18.48;;
20022;SDS011;10172;42.054;24.546;2023-03-03T03:54:13;35.67;;;17.75;;
20022;SDS011;10172;42.054;24.546;2023-03-03T03:56:39;59.22;;;33.65;;
20022;SDS011;10172;42.054;24.546;2023-03-03T03:59:05;49.03;;;27.85;;
20022;SDS011;10172;42.054;24.546;2023-03-03T04:01:31;38.15;;;20.23;;
20022;SDS011;10172;42.054;24.546;2023-03-03T04:03:57;26.55;;;14.27;;
20022;SDS011;10172;42.054;24.546;2023-03-03T04:06:23;31.13;;;16.25;;
20022;SDS011;10172;42.054;24.546;2023-03-03T04:08:48;34.25;;;15.82;;
20022;SDS011;10172;42.054;24.546;2023-03-03T04:11:13;31.88;;;15.55;;
20022;SDS011;10172;42.054;24.546;2023-03-03T04:13:39;69.45;;;44.17;;
20022;SDS011;10172;42.054;24.546;2023-03-03T04:16:05;43.85;;;19.92;;
20022;SDS011;10172;42.054;24.546;2023-03-03T04:18:30;36.15;;;17.25;;
20022;SDS011;10172;42.054;24.546;2023-03-03T04:20:56;34.00;;;14.70;;
20022;SDS011;10172;42.054;24.546;2023-03-03T04:23:21;30.48;;;15.45;;
20022;SDS011;10172;42.054;24.546;2023-03-03T04:25:47;32.22;;;15.70;;
20022;SDS011;10172;42.054;24.546;2023-03-03T04:28:14;31.08;;;15.20;;
20022;SDS011;10172;42.054;24.546;2023-03-03T04:30:40;31.35;;;14.82;;
20022;SDS011;10172;42.054;24.546;2023-03-03T04:33:06;33.13;;;14.48;;
20022;SDS011;10172;42.054;24.546;2023-03-03T04:35:31;31.00;;;15.88;;
20022;SDS011;10172;42.054;24.546;2023-03-03T04:37:57;28.52;;;14.70;;
20022;SDS011;10172;42.054;24.546;2023-03-03T04:40:24;32.33;;;15.13;;
20022;SDS011;10172;42.054;24.546;2023-03-03T04:42:50;35.63;;;14.43;;
20022;SDS011;10172;42.054;24.546;2023-03-03T04:45:15;31.45;;;15.75;;
20022;SDS011;10172;42.054;24.546;2023-03-03T04:47:41;33.40;;;17.13;;
20022;SDS011;10172;42.054;24.546;2023-03-03T04:50:06;31.63;;;17.15;;
20022;SDS011;10172;42.054;24.546;2023-03-03T04:52:33;34.33;;;17.20;;
20022;SDS011;10172;42.054;24.546;2023-03-03T04:54:59;39.08;;;16.70;;
20022;SDS011;10172;42.054;24.546;2023-03-03T04:57:24;32.25;;;16.95;;
20022;SDS011;10172;42.054;24.546;2023-03-03T04:59:50;34.25;;;16.63;;
20022;SDS011;10172;42.054;24.546;2023-03-03T05:02:15;35.05;;;16.00;;
20022;SDS011;10172;42.054;24.546;2023-03-03T05:04:41;33.13;;;15.57;;
20022;SDS011;10172;42.054;24.546;2023-03-03T05:07:07;31.02;;;15.55;;
20022;SDS011;10172;42.054;24.546;2023-03-03T05:09:32;34.63;;;15.20;;
20022;SDS011;10172;42.054;24.546;2023-03-03T05:11:58;34.58;;;17.40;;
20022;SDS011;10172;42.054;24.546;2023-03-03T05:14:23;34.33;;;16.85;;
20022;SDS011;10172;42.054;24.546;2023-03-03T05:16:50;32.63;;;17.25;;
20022;SDS011;10172;42.054;24.546;2023-03-03T05:19:15;33.85;;;15.35;;
20022;SDS011;10172;42.054;24.546;2023-03-03T05:21:41;34.28;;;14.07;;
20022;SDS011;10172;42.054;24.546;2023-03-03T05:24:10;30.45;;;14.35;;
20022;SDS011;10172;42.054;24.546;2023-03-03T05:26:38;35.28;;;18.38;;
20022;SDS011;10172;42.054;24.546;2023-03-03T05:29:04;33.75;;;17.77;;
20022;SDS011;10172;42.054;24.546;2023-03-03T05:31:30;39.40;;;18.20;;
20022;SDS011;10172;42.054;24.546;2023-03-03T05:33:56;41.40;;;19.23;;
20022;SDS011;10172;42.054;24.546;2023-03-03T05:36:21;42.78;;;22.38;;
20022;SDS011;10172;42.054;24.546;2023-03-03T05:38:47;39.13;;;21.75;;
20022;SDS011;10172;42.054;24.546;2023-03-03T05:41:12;43.40;;;20.23;;
20022;SDS011;10172;42.054;24.546;2023-03-03T05:43:38;53.45;;;21.08;;
20022;SDS011;10172;42.054;24.546;2023-03-03T05:46:03;39.85;;;20.70;;
20022;SDS011;10172;42.054;24.546;2023-03-03T05:48:29;43.90;;;21.55;;
20022;SDS011;10172;42.054;24.546;2023-03-03T05:50:56;45.28;;;22.13;;
20022;SDS011;10172;42.054;24.546;2023-03-03T05:53:23;45.70;;;22.38;;
20022;SDS011;10172;42.054;24.546;2023-03-03T05:55:49;46.47;;;23.42;;
20022;SDS011;10172;42.054;24.546;2023-03-03T05:58:15;42.72;;;22.55;;
20022;SDS011;10172;42.054;24.546;2023-03-03T06:00:40;39.40;;;23.63;;
20022;SDS011;10172;42.054;24.546;2023-03-03T06:03:06;43.15;;;22.90;;
20022;SDS011;10172;42.054;24.546;2023-03-03T06:05:31;39.25;;;21.33;;
20022;SDS011;10172;42.054;24.546;2023-03-03T06:07:57;46.60;;;22.65;;
20022;SDS011;10172;42.054;24.546;2023-03-03T06:10:23;45.97;;;24.00;;
20022;SDS011;10172;42.054;24.546;2023-03-03T06:12:49;41.92;;;22.02;;
20022;SDS011;10172;42.054;24.546;2023-03-03T06:15:15;44.67;;;23.15;;
20022;SDS011;10172;42.054;24.546;2023-03-03T06:17:40;43.95;;;22.50;;
20022;SDS011;10172;42.054;24.546;2023-03-03T06:20:06;40.10;;;22.80;;
20022;SDS011;10172;42.054;24.546;2023-03-03T06:22:32;44.42;;;23.83;;
20022;SDS011;10172;42.054;24.546;2023-03-03T06:24:57;40.38;;;23.27;;
20022;SDS011;10172;42.054;24.546;2023-03-03T06:27:23;48.00;;;23.77;;
20022;SDS011;10172;42.054;24.546;2023-03-03T06:29:48;38.33;;;21.65;;
20022;SDS011;10172;42.054;24.546;2023-03-03T06:32:14;35.95;;;20.83;;
20022;SDS011;10172;42.054;24.546;2023-03-03T06:34:39;40.33;;;21.67;;
20022;SDS011;10172;42.054;24.546;2023-03-03T06:37:05;45.25;;;23.17;;
20022;SDS011;10172;42.054;24.546;2023-03-03T06:39:30;38.33;;;22.42;;
20022;SDS011;10172;42.054;24.546;2023-03-03T06:41:56;49.08;;;25.00;;
20022;SDS011;10172;42.054;24.546;2023-03-03T06:44:21;40.13;;;23.15;;
20022;SDS011;10172;42.054;24.546;2023-03-03T06:46:47;44.22;;;23.50;;
20022;SDS011;10172;42.054;24.546;2023-03-03T06:49:13;44.63;;;25.80;;
20022;SDS011;10172;42.054;24.546;2023-03-03T06:51:38;43.50;;;23.92;;
20022;SDS011;10172;42.054;24.546;2023-03-03T06:54:17;48.53;;;25.17;;
20022;SDS011;10172;42.054;24.546;2023-03-03T06:56:44;44.00;;;25.05;;
20022;SDS011;10172;42.054;24.546;2023-03-03T06:59:14;44.88;;;23.77;;
20022;SDS011;10172;42.054;24.546;2023-03-03T07:01:44;32.60;;;19.00;;
20022;SDS011;10172;42.054;24.546;2023-03-03T07:06:56;40.55;;;23.67;;
20022;SDS011;10172;42.054;24.546;2023-03-03T07:12:12;42.80;;;23.75;;
20022;SDS011;10172;42.054;24.546;2023-03-03T07:14:41;62.25;;;32.58;;
20022;SDS011;10172;42.054;24.546;2023-03-03T07:17:10;47.60;;;25.73;;
20022;SDS011;10172;42.054;24.546;2023-03-03T07:19:40;44.65;;;22.98;;
20022;SDS011;10172;42.054;24.546;2023-03-03T07:22:17;44.30;;;23.63;;
20022;SDS011;10172;42.054;24.546;2023-03-03T07:24:46;44.85;;;22.58;;
20022;SDS011;10172;42.054;24.546;2023-03-03T07:29:51;30.02;;;19.52;;
20022;SDS011;10172;42.054;24.546;2023-03-03T07:34:51;34.75;;;19.85;;
20022;SDS011;10172;42.054;24.546;2023-03-03T07:37:29;35.42;;;24.20;;
20022;SDS011;10172;42.054;24.546;2023-03-03T07:39:59;35.90;;;19.83;;
20022;SDS011;10172;42.054;24.546;2023-03-03T07:45:16;41.03;;;23.85;;
20022;SDS011;10172;42.054;24.546;2023-03-03T07:50:33;31.63;;;19.77;;
20022;SDS011;10172;42.054;24.546;2023-03-03T07:52:59;43.10;;;26.75;;
20022;SDS011;10172;42.054;24.546;2023-03-03T07:55:32;25.63;;;17.13;;
20022;SDS011;10172;42.054;24.546;2023-03-03T08:03:25;10.73;;;6.20;;
20022;SDS011;10172;42.054;24.546;2023-03-03T08:05:49;11.93;;;7.65;;
20022;SDS011;10172;42.054;24.546;2023-03-03T08:08:29;19.00;;;10.85;;
20022;SDS011;10172;42.054;24.546;2023-03-03T08:10:58;20.50;;;13.52;;
20022;SDS011;10172;42.054;24.546;2023-03-03T08:16:17;10.80;;;6.40;;
20022;SDS011;10172;42.054;24.546;2023-03-03T08:18:51;22.48;;;14.50;;
20022;SDS011;10172;42.054;24.546;2023-03-03T08:21:18;19.70;;;15.10;;
20022;SDS011;10172;42.054;24.546;2023-03-03T08:23:44;13.98;;;7.75;;
20022;SDS011;10172;42.054;24.546;2023-03-03T08:26:10;19.85;;;13.98;;
20022;SDS011;10172;42.054;24.546;2023-03-03T08:28:39;10.88;;;7.78;;
20022;SDS011;10172;42.054;24.546;2023-03-03T08:31:04;19.08;;;11.35;;
20022;SDS011;10172;42.054;24.546;2023-03-03T08:33:31;16.30;;;9.27;;
20022;SDS011;10172;42.054;24.546;2023-03-03T08:35:56;14.00;;;8.93;;
20022;SDS011;10172;42.054;24.546;2023-03-03T08:38:22;10.27;;;6.07;;
20022;SDS011;10172;42.054;24.546;2023-03-03T08:40:48;12.18;;;8.32;;
20022;SDS011;10172;42.054;24.546;2023-03-03T08:43:14;31.10;;;16.02;;
20022;SDS011;10172;42.054;24.546;2023-03-03T08:45:47;24.92;;;17.92;;
20022;SDS011;10172;42.054;24.546;2023-03-03T08:48:14;16.42;;;9.27;;
20022;SDS011;10172;42.054;24.546;2023-03-03T08:50:40;20.85;;;11.50;;
20022;SDS011;10172;42.054;24.546;2023-03-03T08:53:06;16.95;;;9.60;;
20022;SDS011;10172;42.054;24.546;2023-03-03T08:55:32;16.38;;;9.95;;
20022;SDS011;10172;42.054;24.546;2023-03-03T08:57:58;14.30;;;10.05;;
20022;SDS011;10172;42.054;24.546;2023-03-03T09:00:24;18.17;;;9.38;;
20022;SDS011;10172;42.054;24.546;2023-03-03T09:02:50;14.75;;;9.25;;
20022;SDS011;10172;42.054;24.546;2023-03-03T09:05:17;17.15;;;10.40;;
20022;SDS011;10172;42.054;24.546;2023-03-03T09:07:44;19.55;;;11.43;;
20022;SDS011;10172;42.054;24.546;2023-03-03T09:10:12;27.38;;;15.77;;
20022;SDS011;10172;42.054;24.546;2023-03-03T09:12:40;18.75;;;9.25;;
20022;SDS011;10172;42.054;24.546;2023-03-03T09:17:39;17.75;;;10.10;;
20022;SDS011;10172;42.054;24.546;2023-03-03T09:20:27;14.05;;;8.48;;
20022;SDS011;10172;42.054;24.546;2023-03-03T09:23:22;15.82;;;8.52;;
20022;SDS011;10172;42.054;24.546;2023-03-03T09:25:45;10.68;;;7.10;;
20022;SDS011;10172;42.054;24.546;2023-03-03T09:28:44;17.17;;;11.75;;
20022;SDS011;10172;42.054;24.546;2023-03-03T09:31:02;25.13;;;14.73;;
20022;SDS011;10172;42.054;24.546;2023-03-03T09:33:40;17.45;;;10.98;;
20022;SDS011;10172;42.054;24.546;2023-03-03T09:38:50;12.70;;;7.70;;
20022;SDS011;10172;42.054;24.546;2023-03-03T09:44:11;15.93;;;10.00;;
20022;SDS011;10172;42.054;24.546;2023-03-03T09:49:34;16.63;;;8.82;;
20022;SDS011;10172;42.054;24.546;2023-03-03T09:55:12;16.10;;;9.55;;
20022;SDS011;10172;42.054;24.546;2023-03-03T10:00:36;17.08;;;8.27;;
20022;SDS011;10172;42.054;24.546;2023-03-03T10:16:43;9.55;;;6.43;;
20022;SDS011;10172;42.054;24.546;2023-03-03T10:19:40;13.05;;;7.75;;
20022;SDS011;10172;42.054;24.546;2023-03-03T10:22:15;12.18;;;5.97;;
20022;SDS011;10172;42.054;24.546;2023-03-03T10:30:27;10.07;;;6.28;;
20022;SDS011;10172;42.054;24.546;2023-03-03T10:41:17;8.20;;;5.80;;
20022;SDS011;10172;42.054;24.546;2023-03-03T10:50:00;15.95;;;9.00;;
20022;SDS011;10172;42.054;24.546;2023-03-03T10:52:49;7.47;;;3.47;;
20022;SDS011;10172;42.054;24.546;2023-03-03T11:01:07;8.50;;;3.92;;
20022;SDS011;10172;42.054;24.546;2023-03-03T11:06:42;6.60;;;3.78;;
20022;SDS011;10172;42.054;24.546;2023-03-03T11:09:37;15.10;;;7.95;;
20022;SDS011;10172;42.054;24.546;2023-03-03T11:18:01;7.88;;;3.88;;
20022;SDS011;10172;42.054;24.546;2023-03-03T11:26:16;8.57;;;5.18;;
20022;SDS011;10172;42.054;24.546;2023-03-03T11:31:54;5.03;;;3.25;;
20022;SDS011;10172;42.054;24.546;2023-03-03T11:36:59;7.78;;;4.72;;
20022;SDS011;10172;42.054;24.546;2023-03-03T11:39:29;7.30;;;3.80;;
20022;SDS011;10172;42.054;24.546;2023-03-03T11:44:28;5.13;;;3.70;;
20022;SDS011;10172;42.054;24.546;2023-03-03T11:47:16;6.88;;;3.70;;
20022;SDS011;10172;42.054;24.546;2023-03-03T11:50:04;4.97;;;3.85;;
20022;SDS011;10172;42.054;24.546;2023-03-03T11:55:14;6.88;;;4.70;;
20022;SDS011;10172;42.054;24.546;2023-03-03T12:00:36;9.82;;;5.95;;
20022;SDS011;10172;42.054;24.546;2023-03-03T12:08:43;13.40;;;8.88;;
20022;SDS011;10172;42.054;24.546;2023-03-03T12:11:24;17.65;;;10.85;;
20022;SDS011;10172;42.054;24.546;2023-03-03T12:19:32;11.75;;;6.75;;
20022;SDS011;10172;42.054;24.546;2023-03-03T12:22:20;9.65;;;6.38;;
20022;SDS011;10172;42.054;24.546;2023-03-03T12:25:21;12.27;;;7.28;;
20022;SDS011;10172;42.054;24.546;2023-03-03T12:47:27;8.20;;;6.32;;
20022;SDS011;10172;42.054;24.546;2023-03-03T12:56:17;10.55;;;7.25;;
20022;SDS011;10172;42.054;24.546;2023-03-03T12:58:51;20.73;;;12.27;;
20022;SDS011;10172;42.054;24.546;2023-03-03T13:01:32;11.10;;;7.72;;
20022;SDS011;10172;42.054;24.546;2023-03-03T13:07:56;13.23;;;9.48;;
20022;SDS011;10172;42.054;24.546;2023-03-03T13:12:58;11.95;;;7.85;;
20022;SDS011;10172;42.054;24.546;2023-03-03T13:29:35;14.75;;;8.82;;
20022;SDS011;10172;42.054;24.546;2023-03-03T13:34:44;14.60;;;9.10;;
20022;SDS011;10172;42.054;24.546;2023-03-03T13:45:38;10.40;;;7.13;;
20022;SDS011;10172;42.054;24.546;2023-03-03T14:01:52;9.35;;;6.90;;
20022;SDS011;10172;42.054;24.546;2023-03-03T14:07:10;39.20;;;22.98;;
20022;SDS011;10172;42.054;24.546;2023-03-03T14:20:28;13.27;;;8.68;;
20022;SDS011;10172;42.054;24.546;2023-03-03T14:23:12;16.30;;;10.85;;
20022;SDS011;10172;42.054;24.546;2023-03-03T14:26:09;15.60;;;10.05;;
20022;SDS011;10172;42.054;24.546;2023-03-03T14:28:40;20.45;;;11.82;;
20022;SDS011;10172;42.054;24.546;2023-03-03T14:31:15;18.08;;;12.98;;
20022;SDS011;10172;42.054;24.546;2023-03-03T14:33:56;14.50;;;9.85;;
20022;SDS011;10172;42.054;24.546;2023-03-03T14:36:58;18.70;;;10.07;;
20022;SDS011;10172;42.054;24.546;2023-03-03T14:39:42;17.73;;;10.95;;
20022;SDS011;10172;42.054;24.546;2023-03-03T14:42:12;13.98;;;7.75;;
20022;SDS011;10172;42.054;24.546;2023-03-03T14:48:05;13.25;;;8.23;;
20022;SDS011;10172;42.054;24.546;2023-03-03T14:50:39;11.77;;;8.30;;
20022;SDS011;10172;42.054;24.546;2023-03-03T14:53:29;14.40;;;10.40;;
20022;SDS011;10172;42.054;24.546;2023-03-03T14:56:14;17.85;;;11.43;;
20022;SDS011;10172;42.054;24.546;2023-03-03T14:58:41;16.13;;;11.02;;
20022;SDS011;10172;42.054;24.546;2023-03-03T15:03:45;12.60;;;8.40;;
20022;SDS011;10172;42.054;24.546;2023-03-03T15:06:40;11.13;;;7.85;;
20022;SDS011;10172;42.054;24.546;2023-03-03T15:11:58;20.00;;;12.02;;
20022;SDS011;10172;42.054;24.546;2023-03-03T15:14:31;14.48;;;9.93;;
20022;SDS011;10172;42.054;24.546;2023-03-03T15:36:46;46.30;;;29.02;;
20022;SDS011;10172;42.054;24.546;2023-03-03T15:39:45;28.55;;;18.50;;
20022;SDS011;10172;42.054;24.546;2023-03-03T15:45:06;22.05;;;15.15;;
20022;SDS011;10172;42.054;24.546;2023-03-03T15:50:22;56.38;;;36.42;;
20022;SDS011;10172;42.054;24.546;2023-03-03T16:03:18;16.02;;;9.18;;
20022;SDS011;10172;42.054;24.546;2023-03-03T16:05:52;12.90;;;9.40;;
20022;SDS011;10172;42.054;24.546;2023-03-03T16:08:23;22.02;;;13.27;;
20022;SDS011;10172;42.054;24.546;2023-03-03T16:19:41;61.78;;;25.88;;
20022;SDS011;10172;42.054;24.546;2023-03-03T16:46:55;23.63;;;12.95;;
20022;SDS011;10172;42.054;24.546;2023-03-03T16:50:08;31.63;;;15.13;;
20022;SDS011;10172;42.054;24.546;2023-03-03T16:52:40;24.40;;;15.60;;
20022;SDS011;10172;42.054;24.546;2023-03-03T16:55:14;19.48;;;12.52;;
20022;SDS011;10172;42.054;24.546;2023-03-03T17:00:54;15.25;;;10.95;;
20022;SDS011;10172;42.054;24.546;2023-03-03T17:09:18;13.60;;;9.20;;
20022;SDS011;10172;42.054;24.546;2023-03-03T17:17:30;15.13;;;9.68;;
20022;SDS011;10172;42.054;24.546;2023-03-03T17:26:10;16.20;;;11.27;;
20022;SDS011;10172;42.054;24.546;2023-03-03T17:37:32;39.17;;;22.95;;
20022;SDS011;10172;42.054;24.546;2023-03-03T17:45:40;17.40;;;11.98;;
20022;SDS011;10172;42.054;24.546;2023-03-03T17:56:27;19.48;;;12.43;;
20022;SDS011;10172;42.054;24.546;2023-03-03T18:16:03;25.33;;;17.98;;
20022;SDS011;10172;42.054;24.546;2023-03-03T18:18:44;23.23;;;13.77;;
20022;SDS011;10172;42.054;24.546;2023-03-03T18:21:20;19.65;;;12.00;;
20022;SDS011;10172;42.054;24.546;2023-03-03T18:23:49;17.50;;;10.70;;
20022;SDS011;10172;42.054;24.546;2023-03-03T18:34:38;16.77;;;10.98;;
20022;SDS011;10172;42.054;24.546;2023-03-03T18:45:09;28.38;;;22.30;;
20022;SDS011;10172;42.054;24.546;2023-03-03T18:50:35;18.75;;;12.38;;
20022;SDS011;10172;42.054;24.546;2023-03-03T18:53:16;13.07;;;9.85;;
20022;SDS011;10172;42.054;24.546;2023-03-03T18:55:46;12.32;;;8.98;;
20022;SDS011;10172;42.054;24.546;2023-03-03T19:00:48;15.20;;;9.25;;
20022;SDS011;10172;42.054;24.546;2023-03-03T19:05:57;16.15;;;11.80;;
20022;SDS011;10172;42.054;24.546;2023-03-03T19:08:25;20.48;;;16.65;;
20022;SDS011;10172;42.054;24.546;2023-03-03T19:15:58;26.98;;;21.05;;
20022;SDS011;10172;42.054;24.546;2023-03-03T19:18:25;13.25;;;9.57;;
20022;SDS011;10172;42.054;24.546;2023-03-03T19:45:15;29.00;;;18.70;;
20022;SDS011;10172;42.054;24.546;2023-03-03T19:50:45;50.33;;;38.03;;
20022;SDS011;10172;42.054;24.546;2023-03-03T19:59:05;17.17;;;12.05;;
20022;SDS011;10172;42.054;24.546;2023-03-03T20:04:43;11.00;;;7.72;;
20022;SDS011;10172;42.054;24.546;2023-03-03T20:07:34;13.52;;;7.53;;
20022;SDS011;10172;42.054;24.546;2023-03-03T20:15:52;17.08;;;9.40;;
20022;SDS011;10172;42.054;24.546;2023-03-03T20:27:21;25.58;;;14.80;;
20022;SDS011;10172;42.054;24.546;2023-03-03T20:38:06;14.82;;;9.45;;
20022;SDS011;10172;42.054;24.546;2023-03-03T20:40:48;17.42;;;10.85;;
20022;SDS011;10172;42.054;24.546;2023-03-03T20:45:59;17.52;;;10.73;;
20022;SDS011;10172;42.054;24.546;2023-03-03T21:00:34;11.15;;;7.90;;
20022;SDS011;10172;42.054;24.546;2023-03-03T21:02:37;8.05;;;6.07;;
20022;SDS011;10172;42.054;24.546;2023-03-03T21:05:16;7.85;;;4.97;;
20022;SDS011;10172;42.054;24.546;2023-03-03T21:10:18;8.80;;;6.53;;
20022;SDS011;10172;42.054;24.546;2023-03-03T21:12:52;11.57;;;7.40;;
20022;SDS011;10172;42.054;24.546;2023-03-03T21:15:32;11.75;;;9.00;;
20022;SDS011;10172;42.054;24.546;2023-03-03T21:17:59;14.27;;;9.00;;
20022;SDS011;10172;42.054;24.546;2023-03-03T21:20:45;11.35;;;8.25;;
20022;SDS011;10172;42.054;24.546;2023-03-03T21:23:11;8.55;;;6.80;;
20022;SDS011;10172;42.054;24.546;2023-03-03T21:28:38;6.93;;;5.60;;
20022;SDS011;10172;42.054;24.546;2023-03-03T21:36:24;16.25;;;10.73;;
20022;SDS011;10172;42.054;24.546;2023-03-03T21:39:19;17.13;;;11.30;;
20022;SDS011;10172;42.054;24.546;2023-03-03T21:41:55;14.00;;;10.13;;
20022;SDS011;10172;42.054;24.546;2023-03-03T21:44:27;15.13;;;9.35;;
20022;SDS011;10172;42.054;24.546;2023-03-03T21:46:58;15.20;;;9.25;;
20022;SDS011;10172;42.054;24.546;2023-03-03T21:49:25;10.98;;;6.63;;
20022;SDS011;10172;42.054;24.546;2023-03-03T21:51:51;8.43;;;6.45;;
20022;SDS011;10172;42.054;24.546;2023-03-03T21:54:16;8.93;;;6.43;;
20022;SDS011;10172;42.054;24.546;2023-03-03T21:56:42;9.63;;;6.28;;
20022;SDS011;10172;42.054;24.546;2023-03-03T21:59:07;9.27;;;6.18;;
20022;SDS011;10172;42.054;24.546;2023-03-03T22:01:33;9.05;;;6.10;;
20022;SDS011;10172;42.054;24.546;2023-03-03T22:03:59;14.18;;;6.13;;
20022;SDS011;10172;42.054;24.546;2023-03-03T22:06:25;10.05;;;6.50;;
20022;SDS011;10172;42.054;24.546;2023-03-03T22:08:51;9.45;;;5.70;;
20022;SDS011;10172;42.054;24.546;2023-03-03T22:11:16;13.38;;;7.45;;
20022;SDS011;10172;42.054;24.546;2023-03-03T22:13:42;12.05;;;7.53;;
20022;SDS011;10172;42.054;24.546;2023-03-03T22:16:07;14.35;;;9.10;;
20022;SDS011;10172;42.054;24.546;2023-03-03T22:18:33;10.85;;;8.00;;
20022;SDS011;10172;42.054;24.546;2023-03-03T22:20:58;13.18;;;7.65;;
20022;SDS011;10172;42.054;24.546;2023-03-03T22:23:24;8.95;;;6.40;;